createdAt,value
2023-02-25T00:01:12.566Z,96433.65
2023-02-25T00:04:00.092Z,96433.68
2023-02-25T00:06:34.492Z,96425.09
2023-02-25T00:09:22.132Z,96421.42
2023-02-25T00:11:56.521Z,96426.11
2023-02-25T00:14:45.074Z,96417.69
2023-02-25T00:17:19.447Z,96407.21
2023-02-25T00:20:07.058Z,96400.02
2023-02-25T00:22:58.072Z,96392.67
2023-02-25T00:25:33.191Z,96388.26
2023-02-25T00:28:21.081Z,96380.81
2023-02-25T00:31:03.140Z,96373.73
2023-02-25T00:33:51.083Z,96365.64
2023-02-25T00:36:29.177Z,96363.80
2023-02-25T00:39:17.121Z,96351.67
2023-02-25T00:41:52.329Z,96352.16
2023-02-25T00:44:40.056Z,96344.18
2023-02-25T00:47:14.590Z,96343.28
2023-02-25T00:50:02.049Z,96348.59
2023-02-25T00:52:44.034Z,96351.58
2023-02-25T00:55:32.078Z,96356.46
2023-02-25T00:58:15.057Z,96355.10
2023-02-25T01:01:11.123Z,96367.16
2023-02-25T01:04:01.068Z,96371.07
2023-02-25T01:06:37.832Z,96365.29
2023-02-25T01:09:26.068Z,96356.57
2023-02-25T01:12:01.176Z,96337.21
2023-02-25T01:14:50.066Z,96329.76
2023-02-25T01:17:32.041Z,96322.71
2023-02-25T01:20:27.058Z,96320.67
2023-02-25T01:23:15.056Z,96317.09
2023-02-25T01:25:50.154Z,96313.89
2023-02-25T01:28:38.057Z,96306.89
2023-02-25T01:31:13.255Z,96296.67
2023-02-25T01:34:01.064Z,96286.45
2023-02-25T01:36:44.039Z,96285.81
2023-02-25T01:39:26.715Z,96288.95
2023-02-25T01:42:20.054Z,96288.06
2023-02-25T01:45:29.281Z,96280.04
2023-02-25T01:48:26.048Z,96268.70
2023-02-25T01:51:03.371Z,96267.63
2023-02-25T01:53:55.049Z,96269.52
2023-02-25T01:56:44.043Z,96268.41
2023-02-25T01:59:35.055Z,96277.90
2023-02-25T02:02:17.058Z,96281.52
2023-02-25T02:05:12.048Z,96276.91
2023-02-25T02:08:00.070Z,96280.95
2023-02-25T02:10:35.177Z,96270.15
2023-02-25T02:13:23.059Z,96267.90
2023-02-25T02:16:36.587Z,96270.21
2023-02-25T02:19:36.260Z,96269.02
2023-02-25T02:22:22.941Z,96281.60
2023-02-25T02:25:30.252Z,96290.03
2023-02-25T02:28:46.044Z,96293.92
2023-02-25T02:32:00.226Z,96290.75
2023-02-25T02:34:49.052Z,96286.77
2023-02-25T02:37:58.061Z,96281.77
2023-02-25T02:40:58.045Z,96270.30
2023-02-25T02:43:47.160Z,96254.58
2023-02-25T02:46:35.045Z,96246.67
2023-02-25T02:49:32.046Z,96260.86
2023-02-25T02:52:23.051Z,96267.02
2023-02-25T02:55:23.210Z,96264.92
2023-02-25T02:58:10.043Z,96264.48
2023-02-25T03:00:55.873Z,96273.07
2023-02-25T03:03:44.078Z,96276.36
2023-02-25T03:06:29.170Z,96273.67
2023-02-25T03:09:17.025Z,96272.34
2023-02-25T03:11:59.187Z,96262.13
2023-02-25T03:14:40.024Z,96256.45
2023-02-25T03:17:28.223Z,96268.02
2023-02-25T03:20:25.043Z,96271.95
2023-02-25T03:23:15.055Z,96280.20
2023-02-25T03:26:10.026Z,96289.80
2023-02-25T03:29:05.233Z,96285.52
2023-02-25T03:32:23.383Z,96287.93
2023-02-25T03:35:13.029Z,96292.35
2023-02-25T03:37:49.179Z,96292.70
2023-02-25T03:40:38.045Z,96295.48
2023-02-25T03:43:31.174Z,96317.61
2023-02-25T03:46:13.081Z,96314.60
2023-02-25T03:49:02.036Z,96305.96
2023-02-25T03:51:44.256Z,96305.86
2023-02-25T03:54:27.637Z,96307.50
2023-02-25T03:57:09.043Z,96306.05
2023-02-25T03:59:50.214Z,96303.56
2023-02-25T04:02:37.089Z,96298.02
2023-02-25T04:05:19.278Z,96292.95
2023-02-25T04:08:02.028Z,96291.81
2023-02-25T04:10:46.070Z,96282.46
2023-02-25T04:13:28.031Z,96282.40
2023-02-25T04:16:09.439Z,96287.15
2023-02-25T04:18:51.043Z,96295.91
2023-02-25T04:21:47.046Z,96303.38
2023-02-25T04:24:21.431Z,96304.38
2023-02-25T04:27:09.020Z,96312.70
2023-02-25T04:29:57.035Z,96322.50
2023-02-25T04:32:45.137Z,96329.81
2023-02-25T04:35:26.036Z,96339.27
2023-02-25T04:38:14.031Z,96341.60
2023-02-25T04:40:49.706Z,96338.71
2023-02-25T04:43:38.029Z,96339.33
2023-02-25T04:46:13.351Z,96334.70
2023-02-25T04:49:01.063Z,96340.98
2023-02-25T04:51:42.032Z,96339.64
2023-02-25T04:54:30.300Z,96337.13
2023-02-25T04:57:12.028Z,96334.55
2023-02-25T04:59:53.147Z,96351.05
2023-02-25T05:02:34.026Z,96347.45
2023-02-25T05:05:16.146Z,96352.61
2023-02-25T05:07:57.029Z,96344.25
2023-02-25T05:10:38.146Z,96354.68
2023-02-25T05:13:19.018Z,96359.95
2023-02-25T05:16:07.097Z,96352.50
2023-02-25T05:18:43.014Z,96357.84
2023-02-25T05:21:37.095Z,96367.21
2023-02-25T05:24:12.720Z,96369.58
2023-02-25T05:27:01.052Z,96371.05
2023-02-25T05:29:42.807Z,96370.77
2023-02-25T05:32:31.110Z,96374.73
2023-02-25T05:35:16.039Z,96375.60
2023-02-25T05:38:04.031Z,96373.27
2023-02-25T05:40:48.075Z,96382.50
2023-02-25T05:43:36.117Z,96393.33
2023-02-25T05:46:18.056Z,96389.16
2023-02-25T05:49:06.024Z,96391.42
2023-02-25T05:51:47.017Z,96397.31
2023-02-25T05:54:28.156Z,96405.08
2023-02-25T05:57:10.093Z,96409.06
2023-02-25T05:59:59.029Z,96409.63
2023-02-25T06:02:33.848Z,96410.56
2023-02-25T06:05:22.015Z,96415.61
2023-02-25T06:07:57.917Z,96414.27
2023-02-25T06:10:46.021Z,96410.34
2023-02-25T06:13:27.027Z,96408.49
2023-02-25T06:16:12.191Z,96403.98
2023-02-25T06:18:55.017Z,96395.25
2023-02-25T06:21:36.154Z,96390.73
2023-02-25T06:24:17.029Z,96391.79
2023-02-25T06:26:58.200Z,96386.89
2023-02-25T06:29:40.010Z,96388.98
2023-02-25T06:32:28.140Z,96397.06
2023-02-25T06:35:02.407Z,96403.36
2023-02-25T06:37:50.084Z,96407.55
2023-02-25T06:40:24.579Z,96413.88
2023-02-25T06:43:12.008Z,96413.30
2023-02-25T06:45:53.045Z,96412.71
2023-02-25T06:48:34.182Z,96411.88
2023-02-25T06:51:17.104Z,96413.17
2023-02-25T06:54:05.010Z,96411.94
2023-02-25T06:56:39.457Z,96411.69
2023-02-25T06:59:27.087Z,96409.73
2023-02-25T07:02:01.694Z,96407.67
2023-02-25T07:04:50.038Z,96403.38
2023-02-25T07:07:24.423Z,96407.04
2023-02-25T07:10:12.005Z,96408.87
2023-02-25T07:12:46.420Z,96410.14
2023-02-25T07:15:35.022Z,96408.63
2023-02-25T07:18:16.006Z,96409.34
2023-02-25T07:21:04.090Z,96409.59
2023-02-25T07:23:46.084Z,96410.72
2023-02-25T07:26:28.801Z,96409.38
2023-02-25T07:29:11.979Z,96410.96
2023-02-25T07:31:53.352Z,96408.01
2023-02-25T07:34:36.017Z,96409.58
2023-02-25T07:37:24.016Z,96408.23
2023-02-25T07:40:01.401Z,96408.39
2023-02-25T07:42:48.978Z,96401.59
2023-02-25T07:45:23.398Z,96393.45
2023-02-25T07:48:10.986Z,96392.25
2023-02-25T07:50:52.001Z,96391.16
2023-02-25T07:53:33.790Z,96388.30
2023-02-25T07:56:16.051Z,96392.58
2023-02-25T07:58:57.170Z,96400.35
2023-02-25T08:01:40.997Z,96406.52
2023-02-25T08:04:22.734Z,96408.23
2023-02-25T08:07:03.996Z,96410.16
2023-02-25T08:09:52.000Z,96420.15
2023-02-25T08:12:26.777Z,96417.62
2023-02-25T08:15:14.971Z,96431.00
2023-02-25T08:17:53.307Z,96429.87
2023-02-25T08:20:41.040Z,96423.45
2023-02-25T08:23:41.059Z,96425.41
2023-02-25T08:26:29.993Z,96425.14
2023-02-25T08:29:05.175Z,96414.83
2023-02-25T08:31:53.232Z,96410.46
2023-02-25T08:34:34.984Z,96413.30
2023-02-25T08:37:31.995Z,96412.39
2023-02-25T08:40:20.991Z,96414.51
2023-02-25T08:42:55.111Z,96410.73
2023-02-25T08:45:47.986Z,96412.09
2023-02-25T08:48:35.991Z,96408.49
2023-02-25T08:51:10.700Z,96408.89
2023-02-25T08:53:58.988Z,96418.43
2023-02-25T08:56:35.360Z,96422.14
2023-02-25T08:59:25.984Z,96443.71
2023-02-25T09:02:00.395Z,96473.17
2023-02-25T09:04:48.111Z,96480.39
2023-02-25T09:07:22.381Z,96479.25
2023-02-25T09:10:12.988Z,96468.48
2023-02-25T09:12:47.725Z,96467.76
2023-02-25T09:15:35.980Z,96463.86
2023-02-25T09:18:17.971Z,96454.71
2023-02-25T09:21:05.968Z,96448.83
2023-02-25T09:23:41.317Z,96443.16
2023-02-25T09:26:28.969Z,96434.38
2023-02-25T09:29:12.974Z,96419.10
2023-02-25T09:31:54.307Z,96418.71
2023-02-25T09:34:35.989Z,96424.64
2023-02-25T09:37:17.101Z,96424.57
2023-02-25T09:39:58.042Z,96427.76
2023-02-25T09:43:06.257Z,96421.45
2023-02-25T09:45:57.048Z,96422.98
2023-02-25T09:48:41.974Z,96425.08
2023-02-25T09:51:33.066Z,96425.52
2023-02-25T09:54:23.228Z,96427.39
2023-02-25T09:57:11.978Z,96423.55
2023-02-25T09:59:47.098Z,96427.44
2023-02-25T10:02:44.094Z,96412.11
2023-02-25T10:05:43.408Z,96418.19
2023-02-25T10:09:03.012Z,96407.81
2023-02-25T10:12:03.954Z,96412.38
2023-02-25T10:14:51.978Z,96405.16
2023-02-25T10:17:53.073Z,96401.35
2023-02-25T10:21:06.002Z,96405.27
2023-02-25T10:24:42.985Z,96402.30
2023-02-25T10:27:33.181Z,96399.13
2023-02-25T10:30:35.056Z,96396.34
2023-02-25T10:33:26.977Z,96395.26
2023-02-25T10:36:20.973Z,96399.45
2023-02-25T10:39:02.083Z,96400.84
2023-02-25T10:41:42.988Z,96391.66
2023-02-25T10:44:25.192Z,96390.48
2023-02-25T10:47:11.974Z,96386.84
2023-02-25T10:50:44.368Z,96382.40
2023-02-25T10:53:26.988Z,96389.94
2023-02-25T10:56:09.182Z,96387.30
2023-02-25T10:59:17.013Z,96385.47
2023-02-25T11:01:59.165Z,96381.64
2023-02-25T11:04:45.959Z,96384.05
2023-02-25T11:07:41.976Z,96387.80
2023-02-25T11:10:26.040Z,96392.27
2023-02-25T11:13:09.939Z,96388.32
2023-02-25T11:15:50.991Z,96390.67
2023-02-25T11:18:38.668Z,96396.55
2023-02-25T11:21:22.343Z,96382.48
2023-02-25T11:24:08.144Z,96385.90
2023-02-25T11:26:51.963Z,96382.82
2023-02-25T11:29:56.958Z,96375.93
2023-02-25T11:32:55.244Z,96379.02
2023-02-25T11:35:42.285Z,96377.04
2023-02-25T11:38:44.965Z,96388.77
2023-02-25T11:41:30.908Z,96438.67
2023-02-25T11:44:25.977Z,96456.44
2023-02-25T11:47:15.548Z,96438.19
2023-02-25T11:50:05.971Z,96421.42
2023-02-25T11:53:17.257Z,96415.36
2023-02-25T11:56:11.957Z,96421.59
2023-02-25T11:58:55.092Z,96424.48
2023-02-25T12:01:53.965Z,96427.84
2023-02-25T12:04:47.144Z,96423.56
2023-02-25T12:08:12.875Z,96409.52
2023-02-25T12:11:09.103Z,96415.48
2023-02-25T12:14:20.948Z,96423.27
2023-02-25T12:17:33.964Z,96424.98
2023-02-25T12:21:05.975Z,96425.87
2023-02-25T12:24:26.954Z,96436.67
2023-02-25T12:27:50.976Z,96427.04
2023-02-25T12:30:49.047Z,96433.35
2023-02-25T12:33:55.953Z,96442.50
2023-02-25T12:36:43.087Z,96445.05
2023-02-25T12:40:07.059Z,96446.04
2023-02-25T12:43:10.073Z,96453.19
2023-02-25T12:46:28.059Z,96447.78
2023-02-25T12:49:40.972Z,96454.52
2023-02-25T12:52:32.290Z,96455.77
2023-02-25T12:55:32.929Z,96455.09
2023-02-25T12:58:42.948Z,96458.55
2023-02-25T13:01:41.951Z,96453.35
2023-02-25T13:04:50.996Z,96458.23
2023-02-25T13:08:03.973Z,96458.61
2023-02-25T13:11:10.956Z,96475.84
2023-02-25T13:14:14.943Z,96479.44
2023-02-25T13:17:40.949Z,96471.73
2023-02-25T13:20:47.105Z,96469.27
2023-02-25T13:23:56.362Z,96472.82
2023-02-25T13:26:57.605Z,96492.84
2023-02-25T13:30:19.959Z,96499.23
2023-02-25T13:33:27.140Z,96490.52
2023-02-25T13:36:54.160Z,96530.73
2023-02-25T13:40:13.035Z,96539.63
2023-02-25T13:43:28.949Z,96537.23
2023-02-25T13:46:30.186Z,96533.34
2023-02-25T13:49:38.950Z,96541.73
2023-02-25T13:52:34.241Z,96543.86
2023-02-25T13:55:30.986Z,96538.59
2023-02-25T13:58:21.121Z,96527.67
2023-02-25T14:01:14.300Z,96531.63
2023-02-25T14:04:16.050Z,96532.81
2023-02-25T14:07:47.955Z,96534.96
2023-02-25T14:11:13.070Z,96542.61
2023-02-25T14:14:26.977Z,96540.65
2023-02-25T14:17:24.975Z,96550.55
2023-02-25T14:20:12.347Z,96563.04
2023-02-25T14:23:07.940Z,96568.36
2023-02-25T14:25:47.480Z,96572.63
2023-02-25T14:28:54.060Z,96574.90
2023-02-25T14:31:57.180Z,96586.92
2023-02-25T14:35:02.945Z,96574.92
2023-02-25T14:38:16.121Z,96568.39
2023-02-25T14:41:15.944Z,96567.86
2023-02-25T14:44:00.059Z,96570.42
2023-02-25T14:46:59.944Z,96579.33
2023-02-25T14:50:05.326Z,96574.05
2023-02-25T14:52:46.916Z,96574.52
2023-02-25T14:55:43.962Z,96571.20
2023-02-25T14:58:30.921Z,96583.42
2023-02-25T15:01:53.083Z,96588.42
2023-02-25T15:05:11.917Z,96598.42
2023-02-25T15:08:07.941Z,96603.24
2023-02-25T15:11:06.903Z,96603.79
2023-02-25T15:14:06.375Z,96605.77
2023-02-25T15:17:03.201Z,96617.61
2023-02-25T15:20:16.943Z,96615.83
2023-02-25T15:23:13.926Z,96617.77
2023-02-25T15:26:17.104Z,96616.92
2023-02-25T15:28:59.938Z,96623.02
2023-02-25T15:31:43.131Z,96630.00
2023-02-25T15:34:30.019Z,96630.00
2023-02-25T15:37:31.588Z,96632.38
2023-02-25T15:40:22.964Z,96639.21
2023-02-25T15:43:24.058Z,96644.54
2023-02-25T15:46:13.994Z,96654.70
2023-02-25T15:49:25.748Z,96655.00
2023-02-25T15:52:09.071Z,96660.03
2023-02-25T15:54:59.992Z,96665.39
2023-02-25T15:57:36.387Z,96665.80
2023-02-25T16:00:55.999Z,96670.88
2023-02-25T16:03:42.912Z,96668.11
2023-02-25T16:06:42.967Z,96673.84
2023-02-25T16:09:19.304Z,96684.45
2023-02-25T16:12:08.064Z,96696.45
2023-02-25T16:14:48.976Z,96699.14
2023-02-25T16:17:36.081Z,96713.44
2023-02-25T16:20:30.908Z,96717.10
2023-02-25T16:23:22.940Z,96730.62
2023-02-25T16:26:33.917Z,96733.42
2023-02-25T16:29:48.925Z,96737.20
2023-02-25T16:33:19.928Z,96739.95
2023-02-25T16:36:14.101Z,96752.75
2023-02-25T16:39:09.945Z,96751.67
2023-02-25T16:41:58.909Z,96759.56
2023-02-25T16:44:41.080Z,96765.34
2023-02-25T16:47:34.923Z,96768.94
2023-02-25T16:50:19.945Z,96771.42
2023-02-25T16:53:17.912Z,96774.70
2023-02-25T16:56:07.707Z,96780.29
2023-02-25T16:58:42.056Z,96782.47
2023-02-25T17:01:33.157Z,96791.73
2023-02-25T17:04:20.073Z,96796.61
2023-02-25T17:07:10.929Z,96800.96
2023-02-25T17:09:58.918Z,96812.16
2023-02-25T17:12:56.971Z,96810.40
2023-02-25T17:15:44.904Z,96816.84
2023-02-25T17:18:29.899Z,96819.83
2023-02-25T17:21:43.458Z,96820.63
2023-02-25T17:24:32.913Z,96818.38
2023-02-25T17:27:27.939Z,96819.11
2023-02-25T17:30:49.019Z,96818.02
2023-02-25T17:33:43.908Z,96816.82
2023-02-25T17:36:36.095Z,96823.02
2023-02-25T17:39:36.931Z,96828.92
2023-02-25T17:42:42.934Z,96837.86
2023-02-25T17:45:45.928Z,96842.95
2023-02-25T17:48:38.897Z,96850.71
2023-02-25T17:51:50.899Z,96851.92
2023-02-25T17:54:43.905Z,96856.73
2023-02-25T17:57:27.048Z,96854.02
2023-02-25T18:00:33.914Z,96860.12
2023-02-25T18:03:31.194Z,96868.86
2023-02-25T18:06:44.121Z,96864.95
2023-02-25T18:09:41.442Z,96866.08
2023-02-25T18:12:38.902Z,96870.29
2023-02-25T18:15:27.187Z,96871.70
2023-02-25T18:18:14.102Z,96875.23
2023-02-25T18:20:56.019Z,96881.82
2023-02-25T18:23:37.907Z,96883.39
2023-02-25T18:26:45.027Z,96882.83
2023-02-25T18:29:27.104Z,96887.20
2023-02-25T18:32:08.313Z,96887.76
2023-02-25T18:34:50.100Z,96889.28
2023-02-25T18:37:33.061Z,96890.34
2023-02-25T18:40:42.874Z,96894.04
2023-02-25T18:43:32.919Z,96895.30
2023-02-25T18:46:14.958Z,96895.91
2023-02-25T18:48:56.119Z,96905.37
2023-02-25T18:51:38.454Z,96908.06
2023-02-25T18:54:29.912Z,96910.48
2023-02-25T18:57:23.884Z,96916.29
2023-02-25T19:00:05.615Z,96922.64
2023-02-25T19:02:53.941Z,96920.84
2023-02-25T19:05:35.292Z,96925.86
2023-02-25T19:08:20.929Z,96931.13
2023-02-25T19:11:10.092Z,96937.88
2023-02-25T19:13:51.909Z,96936.92
2023-02-25T19:16:41.904Z,96941.36
2023-02-25T19:19:17.418Z,96946.54
2023-02-25T19:22:06.933Z,96944.02
2023-02-25T19:24:53.913Z,96944.72
2023-02-25T19:27:43.932Z,96947.15
2023-02-25T19:30:22.225Z,96951.31
2023-02-25T19:33:10.891Z,96954.96
2023-02-25T19:35:45.423Z,96954.23
2023-02-25T19:38:33.915Z,96960.98
2023-02-25T19:41:12.388Z,96959.39
2023-02-25T19:44:00.031Z,96958.55
2023-02-25T19:46:41.934Z,96961.80
2023-02-25T19:49:29.895Z,96961.36
2023-02-25T19:52:10.857Z,96955.80
2023-02-25T19:54:58.880Z,96958.16
2023-02-25T19:57:33.800Z,96958.10
2023-02-25T20:00:25.884Z,96958.23
2023-02-25T20:03:20.874Z,96961.66
2023-02-25T20:06:16.880Z,96961.10
2023-02-25T20:08:54.866Z,96966.45
2023-02-25T20:11:42.859Z,96967.58
2023-02-25T20:14:20.066Z,96965.40
2023-02-25T20:17:07.872Z,96969.09
2023-02-25T20:19:43.061Z,96978.31
2023-02-25T20:22:30.933Z,96985.39
2023-02-25T20:25:06.020Z,96982.88
2023-02-25T20:27:53.885Z,96986.36
2023-02-25T20:30:29.059Z,96989.17
2023-02-25T20:33:16.893Z,96991.48
2023-02-25T20:35:52.000Z,96997.06
2023-02-25T20:38:44.905Z,96992.61
2023-02-25T20:41:21.684Z,96995.06
2023-02-25T20:44:09.873Z,97003.94
2023-02-25T20:46:53.916Z,97003.99
2023-02-25T20:49:44.858Z,97003.45
2023-02-25T20:52:35.035Z,97008.31
2023-02-25T20:55:30.078Z,97014.00
2023-02-25T20:58:19.880Z,97017.09
2023-02-25T21:01:01.975Z,97012.05
2023-02-25T21:03:56.890Z,97011.73
2023-02-25T21:06:46.867Z,97017.21
2023-02-25T21:09:30.184Z,97025.17
2023-02-25T21:12:25.876Z,97031.63
2023-02-25T21:15:14.858Z,97037.40
2023-02-25T21:17:56.865Z,97047.64
2023-02-25T21:20:45.965Z,97048.10
2023-02-25T21:23:21.050Z,97057.38
2023-02-25T21:26:09.854Z,97056.95
2023-02-25T21:28:54.457Z,97055.92
2023-02-25T21:31:49.877Z,97058.86
2023-02-25T21:34:39.095Z,97062.44
2023-02-25T21:37:20.877Z,97063.21
2023-02-25T21:40:16.872Z,97071.48
2023-02-25T21:43:05.840Z,97081.10
2023-02-25T21:45:40.336Z,97086.64
2023-02-25T21:48:29.863Z,97092.64
2023-02-25T21:51:13.159Z,97089.83
2023-02-25T21:54:14.209Z,97088.17
2023-02-25T21:57:02.889Z,97089.33
2023-02-25T21:59:38.027Z,97085.40
2023-02-25T22:02:30.498Z,97088.90
2023-02-25T22:05:17.042Z,97093.16
2023-02-25T22:08:06.753Z,97094.25
2023-02-25T22:10:41.996Z,97094.12
2023-02-25T22:13:29.848Z,97098.34
2023-02-25T22:16:10.021Z,97102.42
2023-02-25T22:18:57.879Z,97102.58
2023-02-25T22:21:40.024Z,97101.98
2023-02-25T22:24:20.846Z,97104.86
2023-02-25T22:27:08.853Z,97115.66
2023-02-25T22:29:56.855Z,97122.92
2023-02-25T22:32:38.200Z,97129.28
2023-02-25T22:35:19.908Z,97134.81
2023-02-25T22:38:00.996Z,97136.48
2023-02-25T22:40:41.862Z,97137.92
2023-02-25T22:43:24.191Z,97135.64
2023-02-25T22:46:33.964Z,97139.63
2023-02-25T22:49:23.005Z,97143.40
2023-02-25T22:51:58.284Z,97145.54
2023-02-25T22:54:45.985Z,97150.89
2023-02-25T22:57:27.876Z,97151.92
2023-02-25T23:00:23.999Z,97153.83
2023-02-25T23:02:58.327Z,97159.70
2023-02-25T23:05:45.941Z,97158.49
2023-02-25T23:08:22.770Z,97161.61
2023-02-25T23:11:20.876Z,97165.80
2023-02-25T23:14:04.853Z,97169.80
2023-02-25T23:16:51.851Z,97176.92
2023-02-25T23:19:32.833Z,97180.73
2023-02-25T23:22:28.848Z,97185.86
2023-02-25T23:25:11.043Z,97187.64
2023-02-25T23:27:52.998Z,97190.27
2023-02-25T23:30:36.210Z,97196.31
2023-02-25T23:33:21.142Z,97200.58
2023-02-25T23:36:05.010Z,97204.51
2023-02-25T23:38:45.987Z,97210.75
2023-02-25T23:41:26.952Z,97218.81
2023-02-25T23:44:11.598Z,97229.15
2023-02-25T23:46:52.825Z,97238.00
2023-02-25T23:49:34.989Z,97246.41
2023-02-25T23:52:23.006Z,97254.56
2023-02-25T23:54:57.992Z,97255.05
2023-02-25T23:57:46.823Z,97257.23
